Check out our new PWSWeather beta!
PWSweather.com
Personal Weather Stations
Station Observations
GIRWX1
Presovsky Kraj, GiraltovceSK

Presovsky KrajGiraltovceSK

Lat: 49.118, Lon: 21.52

Elevation: 630

Station Type: wh1080

http://www.meteogiraltovce.wz.cz/

High Low Average
Temperature 50.5°F10.3°C 32.0°F0.0°C 40.0°F4.4°C
Dew Point 41.2°F5.1°C 27.4°F-2.6°C 34.6°F1.4°C
Winds 3.1 mph 5.0 kmh Calm Calm 1.0 mph SE1.6 kmh SE
Wind Gusts 4.5 mph7.2 kmh -- 2.0 mph3.2 kmh
Humidity 89% 70% 81%
Pressure 30.21 in1023.0 mb 30.03 in1016.9 mb -
Precipitation 0.02 in0.5 mm - -
Hour Temp Dew Point Humidity Winds Wind Gusts Pressure Precip Precip Rate Daily Precip Total
12:00 AM 35.8°F2.1°C 31.1°F-0.5°C 83% 0.1 mph 0.2 kmh 1.6 mph2.6 kmh 30.21 in1023.0 mb 0.00 in0.0 mm 0.00 in0.0 mm 0.00 in0.0 mm
12:05 AM 35.8°F2.1°C 31.1°F-0.5°C 83% Calm Calm 0.7 mph1.1 kmh 30.21 in1023.0 mb 0.00 in0.0 mm 0.00 in0.0 mm 0.00 in0.0 mm
12:10 AM 35.7°F2.1°C 31.0°F-0.6°C 83% 0.4 mph NNE0.6 kmh NNE 1.6 mph2.6 kmh 30.21 in1023.0 mb 0.00 in0.0 mm 0.00 in0.0 mm 0.00 in0.0 mm
12:15 AM 35.5°F1.9°C 30.9°F-0.6°C 83% 1.3 mph NE2.1 kmh NE 2.2 mph3.5 kmh 30.21 in1023.0 mb 0.00 in0.0 mm 0.00 in0.0 mm 0.00 in0.0 mm
12:20 AM 35.6°F2.0°C 31.0°F-0.6°C 83% 2.1 mph NE3.4 kmh NE 3.1 mph5.0 kmh 30.21 in1023.0 mb 0.00 in0.0 mm 0.00 in0.0 mm 0.00 in0.0 mm
12:25 AM 35.7°F2.1°C 31.0°F-0.6°C 83% 1.3 mph 2.1 kmh 2.2 mph3.5 kmh 30.21 in1023.0 mb 0.00 in0.0 mm 0.00 in0.0 mm 0.00 in0.0 mm
12:30 AM 35.8°F2.1°C 31.2°F-0.4°C 83% 0.9 mph NE1.4 kmh NE 2.2 mph3.5 kmh 30.21 in1023.0 mb 0.00 in0.0 mm 0.00 in0.0 mm 0.00 in0.0 mm
12:35 AM 35.8°F2.1°C 31.1°F-0.5°C 83% 2.2 mph NE3.5 kmh NE 3.1 mph5.0 kmh 30.21 in1023.0 mb 0.00 in0.0 mm 0.00 in0.0 mm 0.00 in0.0 mm
12:40 AM 35.6°F2.0°C 31.0°F-0.6°C 83% 0.9 mph N1.4 kmh N 2.2 mph3.5 kmh 30.20 in1022.7 mb 0.00 in0.0 mm 0.00 in0.0 mm 0.00 in0.0 mm
12:45 AM 35.4°F1.9°C 30.8°F-0.7°C 83% 1.4 mph NNE2.3 kmh NNE 2.2 mph3.5 kmh 30.20 in1022.7 mb 0.00 in0.0 mm 0.00 in0.0 mm 0.00 in0.0 mm
12:50 AM 35.4°F1.9°C 30.7°F-0.7°C 83% 1.2 mph N1.9 kmh N 2.2 mph3.5 kmh 30.20 in1022.7 mb 0.00 in0.0 mm 0.00 in0.0 mm 0.00 in0.0 mm
12:55 AM 35.2°F1.8°C 30.6°F-0.8°C 83% 0.3 mph 0.5 kmh 0.7 mph1.1 kmh 30.20 in1022.7 mb 0.00 in0.0 mm 0.00 in0.0 mm 0.00 in0.0 mm
01:00 AM 35.2°F1.8°C 30.5°F-0.8°C 83% 0.6 mph ENE1.0 kmh ENE 2.2 mph3.5 kmh 30.20 in1022.7 mb 0.00 in0.0 mm 0.00 in0.0 mm 0.00 in0.0 mm
01:05 AM 35.0°F1.7°C 30.4°F-0.9°C 83% 1.3 mph NE2.1 kmh NE 2.2 mph3.5 kmh 30.20 in1022.7 mb 0.00 in0.0 mm 0.00 in0.0 mm 0.00 in0.0 mm
01:10 AM 34.9°F1.6°C 30.3°F-0.9°C 83% 1.9 mph NE3.1 kmh NE 3.1 mph5.0 kmh 30.20 in1022.7 mb 0.00 in0.0 mm 0.00 in0.0 mm 0.00 in0.0 mm
01:15 AM 35.1°F1.7°C 30.4°F-0.9°C 83% 1.1 mph NNE1.8 kmh NNE 2.2 mph3.5 kmh 30.20 in1022.7 mb 0.00 in0.0 mm 0.00 in0.0 mm 0.00 in0.0 mm
01:20 AM 35.2°F1.8°C 30.5°F-0.8°C 83% 0.7 mph 1.1 kmh 1.6 mph2.6 kmh 30.20 in1022.7 mb 0.00 in0.0 mm 0.00 in0.0 mm 0.00 in0.0 mm
01:25 AM 35.4°F1.9°C 30.9°F-0.6°C 84% 0.8 mph 1.3 kmh 2.2 mph3.5 kmh 30.20 in1022.7 mb 0.00 in0.0 mm 0.00 in0.0 mm 0.00 in0.0 mm
01:30 AM 35.6°F2.0°C 31.3°F-0.4°C 84% 0.7 mph N1.1 kmh N 1.6 mph2.6 kmh 30.20 in1022.7 mb 0.00 in0.0 mm 0.00 in0.0 mm 0.00 in0.0 mm
01:35 AM 35.6°F2.0°C 31.2°F-0.4°C 84% 1.2 mph NE1.9 kmh NE 2.2 mph3.5 kmh 30.20 in1022.7 mb 0.00 in0.0 mm 0.00 in0.0 mm 0.00 in0.0 mm
01:40 AM 35.3°F1.8°C 31.0°F-0.6°C 84% 1.6 mph NE2.6 kmh NE 2.2 mph3.5 kmh 30.20 in1022.7 mb 0.00 in0.0 mm 0.00 in0.0 mm 0.00 in0.0 mm
01:45 AM 35.1°F1.7°C 30.7°F-0.7°C 84% 1.5 mph NE2.4 kmh NE 2.2 mph3.5 kmh 30.20 in1022.7 mb 0.00 in0.0 mm 0.00 in0.0 mm 0.00 in0.0 mm
01:50 AM 34.9°F1.6°C 30.5°F-0.8°C 84% 0.7 mph NE1.1 kmh NE 1.6 mph2.6 kmh 30.20 in1022.7 mb 0.00 in0.0 mm 0.00 in0.0 mm 0.00 in0.0 mm
01:55 AM 34.8°F1.6°C 30.3°F-0.9°C 84% 0.5 mph 0.8 kmh 1.6 mph2.6 kmh 30.20 in1022.7 mb 0.00 in0.0 mm 0.00 in0.0 mm 0.00 in0.0 mm
02:00 AM 34.7°F1.5°C 30.1°F-1.1°C 83% 0.3 mph 0.5 kmh 1.6 mph2.6 kmh 30.20 in1022.7 mb 0.00 in0.0 mm 0.00 in0.0 mm 0.00 in0.0 mm
02:05 AM 34.7°F1.5°C 30.1°F-1.1°C 83% 0.7 mph 1.1 kmh 1.6 mph2.6 kmh 30.20 in1022.7 mb 0.00 in0.0 mm 0.00 in0.0 mm 0.00 in0.0 mm
02:10 AM 34.7°F1.5°C 30.0°F-1.1°C 83% 0.5 mph 0.8 kmh 1.6 mph2.6 kmh 30.19 in1022.4 mb 0.00 in0.0 mm 0.00 in0.0 mm 0.00 in0.0 mm
02:15 AM 34.5°F1.4°C 29.9°F-1.2°C 83% 0.5 mph NE0.8 kmh NE 1.6 mph2.6 kmh 30.19 in1022.4 mb 0.00 in0.0 mm 0.00 in0.0 mm 0.00 in0.0 mm
02:20 AM 34.5°F1.4°C 29.9°F-1.2°C 83% 1.2 mph NE1.9 kmh NE 2.2 mph3.5 kmh 30.19 in1022.4 mb 0.00 in0.0 mm 0.00 in0.0 mm 0.00 in0.0 mm
02:25 AM 34.5°F1.4°C 29.9°F-1.2°C 83% 1.6 mph NE2.6 kmh NE 2.2 mph3.5 kmh 30.19 in1022.4 mb 0.00 in0.0 mm 0.00 in0.0 mm 0.00 in0.0 mm
02:30 AM 34.5°F1.4°C 29.9°F-1.2°C 83% 1.6 mph NE2.6 kmh NE 2.2 mph3.5 kmh 30.19 in1022.4 mb 0.00 in0.0 mm 0.00 in0.0 mm 0.00 in0.0 mm
02:35 AM 34.5°F1.4°C 30.2°F-1.0°C 84% 0.7 mph NE1.1 kmh NE 2.2 mph3.5 kmh 30.19 in1022.4 mb 0.00 in0.0 mm 0.00 in0.0 mm 0.00 in0.0 mm
02:40 AM 34.5°F1.4°C 30.1°F-1.1°C 84% 0.6 mph NE1.0 kmh NE 1.6 mph2.6 kmh 30.19 in1022.4 mb 0.00 in0.0 mm 0.00 in0.0 mm 0.00 in0.0 mm
02:45 AM 34.4°F1.3°C 30.0°F-1.1°C 84% 1.7 mph NE2.7 kmh NE 2.2 mph3.5 kmh 30.19 in1022.4 mb 0.00 in0.0 mm 0.00 in0.0 mm 0.00 in0.0 mm
02:50 AM 34.5°F1.4°C 30.2°F-1.0°C 84% 0.9 mph NE1.4 kmh NE 2.2 mph3.5 kmh 30.19 in1022.4 mb 0.00 in0.0 mm 0.00 in0.0 mm 0.00 in0.0 mm
02:55 AM 34.4°F1.3°C 30.1°F-1.1°C 84% 1.1 mph NE1.8 kmh NE 2.2 mph3.5 kmh 30.19 in1022.4 mb 0.00 in0.0 mm 0.00 in0.0 mm 0.00 in0.0 mm
03:00 AM 34.5°F1.4°C 30.2°F-1.0°C 84% 0.8 mph NE1.3 kmh NE 2.2 mph3.5 kmh 30.19 in1022.4 mb 0.00 in0.0 mm 0.00 in0.0 mm 0.00 in0.0 mm
03:05 AM 34.5°F1.4°C 30.2°F-1.0°C 84% 0.3 mph 0.5 kmh 1.6 mph2.6 kmh 30.18 in1022.0 mb 0.00 in0.0 mm 0.00 in0.0 mm 0.00 in0.0 mm
03:10 AM 34.4°F1.3°C 30.1°F-1.1°C 84% 0.2 mph 0.3 kmh 1.6 mph2.6 kmh 30.18 in1022.0 mb 0.00 in0.0 mm 0.00 in0.0 mm 0.00 in0.0 mm
03:15 AM 34.3°F1.3°C 30.0°F-1.1°C 84% Calm Calm 0.7 mph1.1 kmh 30.19 in1022.4 mb 0.00 in0.0 mm 0.00 in0.0 mm 0.00 in0.0 mm
03:20 AM 34.3°F1.3°C 30.0°F-1.1°C 84% Calm Calm 0.7 mph1.1 kmh 30.19 in1022.4 mb 0.00 in0.0 mm 0.00 in0.0 mm 0.00 in0.0 mm
03:25 AM 34.2°F1.2°C 29.8°F-1.2°C 84% 0.2 mph 0.3 kmh 1.6 mph2.6 kmh 30.18 in1022.0 mb 0.00 in0.0 mm 0.00 in0.0 mm 0.00 in0.0 mm
03:30 AM 34.2°F1.2°C 29.8°F-1.2°C 84% 1.3 mph NNE2.1 kmh NNE 2.2 mph3.5 kmh 30.18 in1022.0 mb 0.00 in0.0 mm 0.00 in0.0 mm 0.00 in0.0 mm
03:35 AM 34.2°F1.2°C 29.9°F-1.2°C 84% 0.4 mph NW0.6 kmh NW 1.6 mph2.6 kmh 30.19 in1022.4 mb 0.00 in0.0 mm 0.00 in0.0 mm 0.00 in0.0 mm
03:40 AM 34.3°F1.3°C 30.0°F-1.1°C 84% 0.3 mph WNW0.5 kmh WNW 1.6 mph2.6 kmh 30.19 in1022.4 mb 0.00 in0.0 mm 0.00 in0.0 mm 0.00 in0.0 mm
03:45 AM 34.2°F1.2°C 29.8°F-1.2°C 84% 1.9 mph N3.1 kmh N 3.1 mph5.0 kmh 30.18 in1022.0 mb 0.00 in0.0 mm 0.00 in0.0 mm 0.00 in0.0 mm
03:50 AM 34.0°F1.1°C 29.7°F-1.3°C 84% 0.6 mph NNE1.0 kmh NNE 1.6 mph2.6 kmh 30.18 in1022.0 mb 0.00 in0.0 mm 0.00 in0.0 mm 0.00 in0.0 mm
03:55 AM 33.9°F1.1°C 29.6°F-1.3°C 84% 1.3 mph NE2.1 kmh NE 2.2 mph3.5 kmh 30.18 in1022.0 mb 0.00 in0.0 mm 0.00 in0.0 mm 0.00 in0.0 mm
04:00 AM 33.6°F0.9°C 29.0°F-1.7°C 83% 1.3 mph N2.1 kmh N 2.2 mph3.5 kmh 30.18 in1022.0 mb 0.00 in0.0 mm 0.00 in0.0 mm 0.00 in0.0 mm
04:05 AM 33.4°F0.8°C 28.8°F-1.8°C 83% 0.7 mph NE1.1 kmh NE 1.6 mph2.6 kmh 30.19 in1022.4 mb 0.00 in0.0 mm 0.00 in0.0 mm 0.00 in0.0 mm
04:10 AM 33.3°F0.7°C 28.7°F-1.8°C 83% 0.6 mph N1.0 kmh N 1.6 mph2.6 kmh 30.19 in1022.4 mb 0.00 in0.0 mm 0.00 in0.0 mm 0.00 in0.0 mm
04:15 AM 33.1°F0.6°C 28.5°F-1.9°C 83% 1.0 mph NW1.6 kmh NW 2.2 mph3.5 kmh 30.19 in1022.4 mb 0.00 in0.0 mm 0.00 in0.0 mm 0.00 in0.0 mm
04:20 AM 33.0°F0.6°C 28.4°F-2.0°C 83% 0.3 mph NE0.5 kmh NE 1.6 mph2.6 kmh 30.19 in1022.4 mb 0.00 in0.0 mm 0.00 in0.0 mm 0.00 in0.0 mm
04:25 AM 32.9°F0.5°C 28.3°F-2.1°C 83% 0.6 mph N1.0 kmh N 1.6 mph2.6 kmh 30.19 in1022.4 mb 0.00 in0.0 mm 0.00 in0.0 mm 0.00 in0.0 mm
04:30 AM 32.9°F0.5°C 28.3°F-2.1°C 83% 0.1 mph NW0.2 kmh NW 0.7 mph1.1 kmh 30.19 in1022.4 mb 0.00 in0.0 mm 0.00 in0.0 mm 0.00 in0.0 mm
04:35 AM 32.8°F0.4°C 28.2°F-2.1°C 83% 0.2 mph NNE0.3 kmh NNE 1.6 mph2.6 kmh 30.19 in1022.4 mb 0.00 in0.0 mm 0.00 in0.0 mm 0.00 in0.0 mm
04:40 AM 32.7°F0.4°C 28.1°F-2.2°C 83% 0.7 mph N1.1 kmh N 1.6 mph2.6 kmh 30.19 in1022.4 mb 0.00 in0.0 mm 0.00 in0.0 mm 0.00 in0.0 mm
04:45 AM 32.5°F0.3°C 28.0°F-2.2°C 83% 1.9 mph NE3.1 kmh NE 3.1 mph5.0 kmh 30.18 in1022.0 mb 0.00 in0.0 mm 0.00 in0.0 mm 0.00 in0.0 mm
04:50 AM 32.5°F0.3°C 28.0°F-2.2°C 83% 0.9 mph NE1.4 kmh NE 3.1 mph5.0 kmh 30.18 in1022.0 mb 0.00 in0.0 mm 0.00 in0.0 mm 0.00 in0.0 mm
04:55 AM 32.5°F0.3°C 28.0°F-2.2°C 83% 0.4 mph N0.6 kmh N 1.6 mph2.6 kmh 30.18 in1022.0 mb 0.00 in0.0 mm 0.00 in0.0 mm 0.00 in0.0 mm
05:00 AM 32.5°F0.3°C 28.0°F-2.2°C 83% 0.1 mph NE0.2 kmh NE 1.6 mph2.6 kmh 30.19 in1022.4 mb 0.00 in0.0 mm 0.00 in0.0 mm 0.00 in0.0 mm
05:05 AM 32.5°F0.3°C 28.0°F-2.2°C 83% 0.8 mph NE1.3 kmh NE 2.2 mph3.5 kmh 30.18 in1022.0 mb 0.00 in0.0 mm 0.00 in0.0 mm 0.00 in0.0 mm
05:10 AM 32.5°F0.3°C 28.0°F-2.2°C 83% 1.6 mph NE2.6 kmh NE 2.2 mph3.5 kmh 30.18 in1022.0 mb 0.00 in0.0 mm 0.00 in0.0 mm 0.00 in0.0 mm
05:15 AM 32.5°F0.3°C 28.0°F-2.2°C 83% 1.7 mph NE2.7 kmh NE 2.2 mph3.5 kmh 30.18 in1022.0 mb 0.00 in0.0 mm 0.00 in0.0 mm 0.00 in0.0 mm
05:20 AM 32.7°F0.4°C 28.1°F-2.2°C 83% 0.4 mph NW0.6 kmh NW 1.6 mph2.6 kmh 30.18 in1022.0 mb 0.00 in0.0 mm 0.00 in0.0 mm 0.00 in0.0 mm
05:25 AM 32.7°F0.4°C 28.1°F-2.2°C 83% 1.7 mph NE2.7 kmh NE 3.1 mph5.0 kmh 30.18 in1022.0 mb 0.00 in0.0 mm 0.00 in0.0 mm 0.00 in0.0 mm
05:30 AM 32.7°F0.4°C 28.1°F-2.2°C 83% 0.7 mph NE1.1 kmh NE 2.2 mph3.5 kmh 30.18 in1022.0 mb 0.00 in0.0 mm 0.00 in0.0 mm 0.00 in0.0 mm
05:35 AM 32.5°F0.3°C 28.0°F-2.2°C 83% Calm Calm 0.7 mph1.1 kmh 30.18 in1022.0 mb 0.00 in0.0 mm 0.00 in0.0 mm 0.00 in0.0 mm
05:40 AM 32.5°F0.3°C 28.0°F-2.2°C 83% 0.3 mph NE0.5 kmh NE 1.6 mph2.6 kmh 30.18 in1022.0 mb 0.00 in0.0 mm 0.00 in0.0 mm 0.00 in0.0 mm
05:45 AM 32.5°F0.3°C 28.0°F-2.2°C 83% 1.1 mph NNE1.8 kmh NNE 2.2 mph3.5 kmh 30.18 in1022.0 mb 0.00 in0.0 mm 0.00 in0.0 mm 0.00 in0.0 mm
05:50 AM 32.5°F0.3°C 28.0°F-2.2°C 83% 1.3 mph NE2.1 kmh NE 2.2 mph3.5 kmh 30.18 in1022.0 mb 0.00 in0.0 mm 0.00 in0.0 mm 0.00 in0.0 mm
05:55 AM 32.5°F0.3°C 28.0°F-2.2°C 83% 2.0 mph NE3.2 kmh NE 3.1 mph5.0 kmh 30.18 in1022.0 mb 0.00 in0.0 mm 0.00 in0.0 mm 0.00 in0.0 mm
06:00 AM 32.5°F0.3°C 28.0°F-2.2°C 83% 1.6 mph N2.6 kmh N 3.1 mph5.0 kmh 30.17 in1021.7 mb 0.00 in0.0 mm 0.00 in0.0 mm 0.00 in0.0 mm
06:05 AM 32.5°F0.3°C 28.0°F-2.2°C 83% 0.7 mph 1.1 kmh 1.6 mph2.6 kmh 30.17 in1021.7 mb 0.00 in0.0 mm 0.00 in0.0 mm 0.00 in0.0 mm
06:10 AM 32.5°F0.3°C 28.0°F-2.2°C 83% 0.7 mph NNE1.1 kmh NNE 1.6 mph2.6 kmh 30.17 in1021.7 mb 0.00 in0.0 mm 0.00 in0.0 mm 0.00 in0.0 mm
06:15 AM 32.5°F0.3°C 27.9°F-2.3°C 83% 0.4 mph NE0.6 kmh NE 1.6 mph2.6 kmh 30.17 in1021.7 mb 0.00 in0.0 mm 0.00 in0.0 mm 0.00 in0.0 mm
06:20 AM 32.4°F0.2°C 27.8°F-2.3°C 83% 0.5 mph NNE0.8 kmh NNE 1.6 mph2.6 kmh 30.17 in1021.7 mb 0.00 in0.0 mm 0.00 in0.0 mm 0.00 in0.0 mm
06:25 AM 32.3°F0.2°C 27.7°F-2.4°C 83% Calm Calm 0.7 mph1.1 kmh 30.17 in1021.7 mb 0.00 in0.0 mm 0.00 in0.0 mm 0.00 in0.0 mm
06:30 AM 32.2°F0.1°C 27.6°F-2.4°C 83% Calm Calm -- 30.17 in1021.7 mb 0.00 in0.0 mm 0.00 in0.0 mm 0.00 in0.0 mm
06:35 AM 32.2°F0.1°C 27.6°F-2.4°C 83% Calm Calm -- 30.17 in1021.7 mb 0.00 in0.0 mm 0.00 in0.0 mm 0.00 in0.0 mm
06:40 AM 32.2°F0.1°C 27.6°F-2.4°C 83% 0.2 mph NE0.3 kmh NE 1.6 mph2.6 kmh 30.17 in1021.7 mb 0.00 in0.0 mm 0.00 in0.0 mm 0.00 in0.0 mm
06:45 AM 32.1°F0.1°C 27.6°F-2.4°C 83% 0.1 mph NE0.2 kmh NE 1.6 mph2.6 kmh 30.17 in1021.7 mb 0.00 in0.0 mm 0.00 in0.0 mm 0.00 in0.0 mm
06:50 AM 32.0°F0.0°C 27.4°F-2.6°C 83% 0.8 mph N1.3 kmh N 1.6 mph2.6 kmh 30.17 in1021.7 mb 0.00 in0.0 mm 0.00 in0.0 mm 0.00 in0.0 mm
06:55 AM 32.2°F0.1°C 27.6°F-2.4°C 83% 0.9 mph NE1.4 kmh NE 2.2 mph3.5 kmh 30.16 in1021.3 mb 0.00 in0.0 mm 0.00 in0.0 mm 0.00 in0.0 mm
07:00 AM 32.2°F0.1°C 27.6°F-2.4°C 83% 1.2 mph NNE1.9 kmh NNE 2.2 mph3.5 kmh 30.16 in1021.3 mb 0.00 in0.0 mm 0.00 in0.0 mm 0.00 in0.0 mm
07:05 AM 32.2°F0.1°C 27.6°F-2.4°C 83% Calm Calm 0.7 mph1.1 kmh 30.16 in1021.3 mb 0.00 in0.0 mm 0.00 in0.0 mm 0.00 in0.0 mm
07:10 AM 32.4°F0.2°C 27.8°F-2.3°C 83% 0.6 mph NNE1.0 kmh NNE 2.2 mph3.5 kmh 30.16 in1021.3 mb 0.00 in0.0 mm 0.00 in0.0 mm 0.00 in0.0 mm
07:15 AM 32.4°F0.2°C 27.8°F-2.3°C 83% 1.0 mph NE1.6 kmh NE 2.2 mph3.5 kmh 30.16 in1021.3 mb 0.00 in0.0 mm 0.00 in0.0 mm 0.00 in0.0 mm
07:20 AM 32.4°F0.2°C 27.8°F-2.3°C 83% 0.5 mph E0.8 kmh E 2.2 mph3.5 kmh 30.16 in1021.3 mb 0.00 in0.0 mm 0.00 in0.0 mm 0.00 in0.0 mm
07:25 AM 32.4°F0.2°C 27.8°F-2.3°C 83% Calm Calm 0.7 mph1.1 kmh 30.17 in1021.7 mb 0.00 in0.0 mm 0.00 in0.0 mm 0.00 in0.0 mm
07:30 AM 32.4°F0.2°C 27.8°F-2.3°C 83% 0.7 mph N1.1 kmh N 1.6 mph2.6 kmh 30.17 in1021.7 mb 0.00 in0.0 mm 0.00 in0.0 mm 0.00 in0.0 mm
07:35 AM 32.4°F0.2°C 27.8°F-2.3°C 83% 1.7 mph NE2.7 kmh NE 2.2 mph3.5 kmh 30.17 in1021.7 mb 0.00 in0.0 mm 0.00 in0.0 mm 0.00 in0.0 mm
07:40 AM 32.4°F0.2°C 27.9°F-2.3°C 83% 1.1 mph N1.8 kmh N 2.2 mph3.5 kmh 30.17 in1021.7 mb 0.00 in0.0 mm 0.00 in0.0 mm 0.00 in0.0 mm
07:45 AM 32.6°F0.3°C 28.3°F-2.1°C 84% 0.4 mph SW0.6 kmh SW 1.6 mph2.6 kmh 30.17 in1021.7 mb 0.00 in0.0 mm 0.00 in0.0 mm 0.00 in0.0 mm
07:50 AM 32.8°F0.4°C 28.5°F-1.9°C 84% 0.3 mph NNE0.5 kmh NNE 1.6 mph2.6 kmh 30.17 in1021.7 mb 0.00 in0.0 mm 0.00 in0.0 mm 0.00 in0.0 mm
07:55 AM 33.0°F0.6°C 28.7°F-1.8°C 84% 0.4 mph NNW0.6 kmh NNW 1.6 mph2.6 kmh 30.16 in1021.3 mb 0.00 in0.0 mm 0.00 in0.0 mm 0.00 in0.0 mm
08:00 AM 33.3°F0.7°C 29.0°F-1.7°C 84% 0.6 mph NE1.0 kmh NE 2.2 mph3.5 kmh 30.17 in1021.7 mb 0.00 in0.0 mm 0.00 in0.0 mm 0.00 in0.0 mm
08:05 AM 33.4°F0.8°C 29.1°F-1.6°C 84% 1.6 mph NE2.6 kmh NE 2.2 mph3.5 kmh 30.16 in1021.3 mb 0.00 in0.0 mm 0.00 in0.0 mm 0.00 in0.0 mm
08:10 AM 33.9°F1.1°C 29.6°F-1.3°C 84% 1.3 mph N2.1 kmh N 2.2 mph3.5 kmh 30.16 in1021.3 mb 0.00 in0.0 mm 0.00 in0.0 mm 0.00 in0.0 mm
08:15 AM 34.4°F1.3°C 30.4°F-0.9°C 85% 0.2 mph NW0.3 kmh NW 1.6 mph2.6 kmh 30.16 in1021.3 mb 0.00 in0.0 mm 0.00 in0.0 mm 0.00 in0.0 mm
08:20 AM 35.0°F1.7°C 30.9°F-0.6°C 85% 0.6 mph E1.0 kmh E 2.2 mph3.5 kmh 30.16 in1021.3 mb 0.00 in0.0 mm 0.00 in0.0 mm 0.00 in0.0 mm
08:25 AM 35.6°F2.0°C 31.5°F-0.3°C 85% 1.9 mph NE3.1 kmh NE 3.1 mph5.0 kmh 30.16 in1021.3 mb 0.00 in0.0 mm 0.00 in0.0 mm 0.00 in0.0 mm
08:30 AM 35.9°F2.2°C 32.1°F0.1°C 86% 1.3 mph ENE2.1 kmh ENE 3.1 mph5.0 kmh 30.16 in1021.3 mb 0.00 in0.0 mm 0.00 in0.0 mm 0.00 in0.0 mm
08:35 AM 36.1°F2.3°C 32.4°F0.2°C 86% 0.4 mph SE0.6 kmh SE 2.2 mph3.5 kmh 30.16 in1021.3 mb 0.00 in0.0 mm 0.00 in0.0 mm 0.00 in0.0 mm
08:40 AM 36.2°F2.3°C 32.5°F0.3°C 86% 0.7 mph S1.1 kmh S 1.6 mph2.6 kmh 30.16 in1021.3 mb 0.00 in0.0 mm 0.00 in0.0 mm 0.00 in0.0 mm
08:45 AM 36.6°F2.6°C 32.9°F0.5°C 86% 0.6 mph SSE1.0 kmh SSE 1.6 mph2.6 kmh 30.16 in1021.3 mb 0.00 in0.0 mm 0.00 in0.0 mm 0.00 in0.0 mm
08:50 AM 37.2°F2.9°C 33.7°F0.9°C 87% 1.2 mph S1.9 kmh S 2.2 mph3.5 kmh 30.16 in1021.3 mb 0.00 in0.0 mm 0.00 in0.0 mm 0.00 in0.0 mm
08:55 AM 37.7°F3.2°C 34.4°F1.3°C 88% 1.6 mph S2.6 kmh S 2.2 mph3.5 kmh 30.16 in1021.3 mb 0.00 in0.0 mm 0.00 in0.0 mm 0.00 in0.0 mm
09:00 AM 37.8°F3.2°C 34.5°F1.4°C 88% 1.2 mph SW1.9 kmh SW 2.2 mph3.5 kmh 30.16 in1021.3 mb 0.00 in0.0 mm 0.00 in0.0 mm 0.00 in0.0 mm
09:05 AM 37.8°F3.2°C 34.5°F1.4°C 88% 0.6 mph W1.0 kmh W 1.6 mph2.6 kmh 30.16 in1021.3 mb 0.00 in0.0 mm 0.00 in0.0 mm 0.00 in0.0 mm
09:10 AM 37.8°F3.2°C 34.5°F1.4°C 88% 0.4 mph W0.6 kmh W 2.2 mph3.5 kmh 30.15 in1021.0 mb 0.00 in0.0 mm 0.00 in0.0 mm 0.00 in0.0 mm
09:15 AM 37.8°F3.2°C 34.5°F1.4°C 88% 0.7 mph WSW1.1 kmh WSW 1.6 mph2.6 kmh 30.15 in1021.0 mb 0.00 in0.0 mm 0.00 in0.0 mm 0.00 in0.0 mm
09:20 AM 38.0°F3.3°C 34.7°F1.5°C 88% 1.2 mph WSW1.9 kmh WSW 2.2 mph3.5 kmh 30.15 in1021.0 mb 0.00 in0.0 mm 0.00 in0.0 mm 0.00 in0.0 mm
09:25 AM 38.1°F3.4°C 34.8°F1.6°C 88% 0.8 mph SSW1.3 kmh SSW 1.6 mph2.6 kmh 30.16 in1021.3 mb 0.00 in0.0 mm 0.00 in0.0 mm 0.00 in0.0 mm
09:30 AM 38.1°F3.4°C 34.9°F1.6°C 88% 0.7 mph SW1.1 kmh SW 1.6 mph2.6 kmh 30.15 in1021.0 mb 0.00 in0.0 mm 0.00 in0.0 mm 0.00 in0.0 mm
09:35 AM 38.2°F3.4°C 35.0°F1.7°C 88% 1.1 mph SW1.8 kmh SW 2.2 mph3.5 kmh 30.15 in1021.0 mb 0.00 in0.0 mm 0.00 in0.0 mm 0.00 in0.0 mm
09:40 AM 38.4°F3.6°C 35.4°F1.9°C 89% 1.1 mph SW1.8 kmh SW 2.2 mph3.5 kmh 30.15 in1021.0 mb 0.00 in0.0 mm 0.00 in0.0 mm 0.00 in0.0 mm
09:45 AM 38.7°F3.7°C 35.8°F2.1°C 89% 0.7 mph SW1.1 kmh SW 1.6 mph2.6 kmh 30.15 in1021.0 mb 0.00 in0.0 mm 0.00 in0.0 mm 0.00 in0.0 mm
09:50 AM 39.2°F4.0°C 36.2°F2.3°C 89% 0.9 mph SSW1.4 kmh SSW 2.2 mph3.5 kmh 30.15 in1021.0 mb 0.00 in0.0 mm 0.00 in0.0 mm 0.00 in0.0 mm
09:55 AM 39.7°F4.3°C 36.5°F2.5°C 88% 1.3 mph SSW2.1 kmh SSW 2.2 mph3.5 kmh 30.15 in1021.0 mb 0.00 in0.0 mm 0.00 in0.0 mm 0.00 in0.0 mm
10:00 AM 40.3°F4.6°C 37.0°F2.8°C 88% 1.7 mph S2.7 kmh S 3.1 mph5.0 kmh 30.14 in1020.7 mb 0.00 in0.0 mm 0.00 in0.0 mm 0.00 in0.0 mm
10:05 AM 40.9°F4.9°C 37.7°F3.2°C 88% 2.3 mph SSW3.7 kmh SSW 3.8 mph6.1 kmh 30.14 in1020.7 mb 0.00 in0.0 mm 0.00 in0.0 mm 0.00 in0.0 mm
10:10 AM 41.6°F5.3°C 38.1°F3.4°C 87% 1.7 mph SW2.7 kmh SW 3.1 mph5.0 kmh 30.14 in1020.7 mb 0.00 in0.0 mm 0.00 in0.0 mm 0.00 in0.0 mm
10:15 AM 41.7°F5.4°C 37.7°F3.2°C 86% 2.2 mph SSW3.5 kmh SSW 3.1 mph5.0 kmh 30.14 in1020.7 mb 0.00 in0.0 mm 0.00 in0.0 mm 0.00 in0.0 mm
10:20 AM 42.0°F5.6°C 37.6°F3.1°C 84% 1.6 mph SW2.6 kmh SW 2.2 mph3.5 kmh 30.14 in1020.7 mb 0.00 in0.0 mm 0.00 in0.0 mm 0.00 in0.0 mm
10:25 AM 42.5°F5.8°C 37.7°F3.2°C 83% 1.7 mph S2.7 kmh S 3.1 mph5.0 kmh 30.14 in1020.7 mb 0.00 in0.0 mm 0.00 in0.0 mm 0.00 in0.0 mm
10:30 AM 42.9°F6.1°C 37.9°F3.3°C 82% 1.9 mph S3.1 kmh S 3.1 mph5.0 kmh 30.13 in1020.3 mb 0.00 in0.0 mm 0.00 in0.0 mm 0.00 in0.0 mm
10:35 AM 43.1°F6.2°C 37.8°F3.2°C 81% 2.1 mph S3.4 kmh S 3.1 mph5.0 kmh 30.13 in1020.3 mb 0.00 in0.0 mm 0.00 in0.0 mm 0.00 in0.0 mm
10:40 AM 43.2°F6.2°C 37.8°F3.2°C 81% 2.0 mph SW3.2 kmh SW 3.1 mph5.0 kmh 30.13 in1020.3 mb 0.00 in0.0 mm 0.00 in0.0 mm 0.00 in0.0 mm
10:45 AM 43.4°F6.3°C 38.0°F3.3°C 81% 2.3 mph SW3.7 kmh SW 4.5 mph7.2 kmh 30.13 in1020.3 mb 0.00 in0.0 mm 0.00 in0.0 mm 0.00 in0.0 mm
10:50 AM 43.8°F6.6°C 38.3°F3.5°C 81% 1.9 mph SW3.1 kmh SW 3.1 mph5.0 kmh 30.13 in1020.3 mb 0.00 in0.0 mm 0.00 in0.0 mm 0.00 in0.0 mm
10:55 AM 43.7°F6.5°C 37.9°F3.3°C 80% 2.0 mph SSW3.2 kmh SSW 3.1 mph5.0 kmh 30.12 in1020.0 mb 0.00 in0.0 mm 0.00 in0.0 mm 0.00 in0.0 mm
11:00 AM 43.7°F6.5°C 37.9°F3.3°C 80% 1.6 mph SW2.6 kmh SW 2.2 mph3.5 kmh 30.12 in1020.0 mb 0.00 in0.0 mm 0.00 in0.0 mm 0.00 in0.0 mm
11:05 AM 43.7°F6.5°C 37.9°F3.3°C 80% 1.8 mph SW2.9 kmh SW 3.1 mph5.0 kmh 30.12 in1020.0 mb 0.00 in0.0 mm 0.00 in0.0 mm 0.00 in0.0 mm
11:10 AM 43.8°F6.6°C 38.0°F3.3°C 80% 1.9 mph SSW3.1 kmh SSW 3.8 mph6.1 kmh 30.12 in1020.0 mb 0.00 in0.0 mm 0.00 in0.0 mm 0.00 in0.0 mm
11:15 AM 44.2°F6.8°C 38.4°F3.6°C 80% 2.0 mph SSW3.2 kmh SSW 3.8 mph6.1 kmh 30.11 in1019.6 mb 0.00 in0.0 mm 0.00 in0.0 mm 0.00 in0.0 mm
11:20 AM 44.6°F7.0°C 38.9°F3.8°C 80% 1.7 mph SW2.7 kmh SW 3.1 mph5.0 kmh 30.11 in1019.6 mb 0.00 in0.0 mm 0.00 in0.0 mm 0.00 in0.0 mm
11:25 AM 44.9°F7.2°C 39.1°F3.9°C 80% 1.2 mph SW1.9 kmh SW 3.1 mph5.0 kmh 30.11 in1019.6 mb 0.00 in0.0 mm 0.00 in0.0 mm 0.00 in0.0 mm
11:30 AM 45.4°F7.4°C 39.6°F4.2°C 80% 1.6 mph SSW2.6 kmh SSW 2.2 mph3.5 kmh 30.10 in1019.3 mb 0.00 in0.0 mm 0.00 in0.0 mm 0.00 in0.0 mm
11:35 AM 46.0°F7.8°C 37.9°F3.3°C 73% 1.4 mph SSW2.3 kmh SSW 2.2 mph3.5 kmh 30.10 in1019.3 mb 0.00 in0.0 mm 0.00 in0.0 mm 0.00 in0.0 mm
11:40 AM 46.4°F8.0°C 38.0°F3.3°C 72% 1.6 mph S2.6 kmh S 3.1 mph5.0 kmh 30.10 in1019.3 mb 0.00 in0.0 mm 0.00 in0.0 mm 0.00 in0.0 mm
11:45 AM 46.6°F8.1°C 38.0°F3.3°C 72% 1.5 mph SW2.4 kmh SW 2.2 mph3.5 kmh 30.09 in1019.0 mb 0.00 in0.0 mm 0.00 in0.0 mm 0.00 in0.0 mm
11:50 AM 46.6°F8.1°C 38.0°F3.3°C 72% 0.4 mph SW0.6 kmh SW 1.6 mph2.6 kmh 30.09 in1019.0 mb 0.00 in0.0 mm 0.00 in0.0 mm 0.00 in0.0 mm
11:55 AM 46.7°F8.2°C 38.1°F3.4°C 72% 0.7 mph SW1.1 kmh SW 1.6 mph2.6 kmh 30.09 in1019.0 mb 0.00 in0.0 mm 0.00 in0.0 mm 0.00 in0.0 mm
12:00 PM 46.8°F8.2°C 38.3°F3.5°C 72% Calm Calm 0.7 mph1.1 kmh 30.09 in1019.0 mb 0.00 in0.0 mm 0.00 in0.0 mm 0.00 in0.0 mm
12:05 PM 46.9°F8.3°C 38.4°F3.6°C 72% 0.7 mph SW1.1 kmh SW 1.6 mph2.6 kmh 30.09 in1019.0 mb 0.00 in0.0 mm 0.00 in0.0 mm 0.00 in0.0 mm
12:10 PM 47.2°F8.4°C 38.6°F3.7°C 72% 0.3 mph WNW0.5 kmh WNW 1.6 mph2.6 kmh 30.09 in1019.0 mb 0.00 in0.0 mm 0.00 in0.0 mm 0.00 in0.0 mm
12:15 PM 47.4°F8.6°C 38.8°F3.8°C 72% 0.5 mph W0.8 kmh W 1.6 mph2.6 kmh 30.08 in1018.6 mb 0.00 in0.0 mm 0.00 in0.0 mm 0.00 in0.0 mm
12:20 PM 47.6°F8.7°C 39.0°F3.9°C 72% 0.4 mph SW0.6 kmh SW 1.6 mph2.6 kmh 30.08 in1018.6 mb 0.00 in0.0 mm 0.00 in0.0 mm 0.00 in0.0 mm
12:25 PM 47.7°F8.7°C 39.1°F3.9°C 72% 0.2 mph SW0.3 kmh SW 1.6 mph2.6 kmh 30.08 in1018.6 mb 0.00 in0.0 mm 0.00 in0.0 mm 0.00 in0.0 mm
12:30 PM 48.0°F8.9°C 39.1°F3.9°C 71% 0.7 mph SW1.1 kmh SW 1.6 mph2.6 kmh 30.08 in1018.6 mb 0.00 in0.0 mm 0.00 in0.0 mm 0.00 in0.0 mm
12:35 PM 48.1°F8.9°C 39.2°F4.0°C 71% 0.9 mph WSW1.4 kmh WSW 2.2 mph3.5 kmh 30.08 in1018.6 mb 0.00 in0.0 mm 0.00 in0.0 mm 0.00 in0.0 mm
12:40 PM 48.3°F9.1°C 39.6°F4.2°C 72% 1.3 mph WNW2.1 kmh WNW 2.2 mph3.5 kmh 30.07 in1018.3 mb 0.00 in0.0 mm 0.00 in0.0 mm 0.00 in0.0 mm
12:45 PM 48.6°F9.2°C 39.9°F4.4°C 72% 0.9 mph SW1.4 kmh SW 2.2 mph3.5 kmh 30.07 in1018.3 mb 0.00 in0.0 mm 0.00 in0.0 mm 0.00 in0.0 mm
12:50 PM 48.6°F9.2°C 39.7°F4.3°C 71% 1.1 mph SW1.8 kmh SW 2.2 mph3.5 kmh 30.07 in1018.3 mb 0.00 in0.0 mm 0.00 in0.0 mm 0.00 in0.0 mm
12:55 PM 48.9°F9.4°C 39.9°F4.4°C 71% 0.9 mph SW1.4 kmh SW 2.2 mph3.5 kmh 30.06 in1017.9 mb 0.00 in0.0 mm 0.00 in0.0 mm 0.00 in0.0 mm
01:00 PM 49.3°F9.6°C 40.3°F4.6°C 71% 1.1 mph SW1.8 kmh SW 2.2 mph3.5 kmh 30.06 in1017.9 mb 0.00 in0.0 mm 0.00 in0.0 mm 0.00 in0.0 mm
01:05 PM 49.5°F9.7°C 40.5°F4.7°C 71% 1.4 mph SW2.3 kmh SW 2.2 mph3.5 kmh 30.06 in1017.9 mb 0.00 in0.0 mm 0.00 in0.0 mm 0.00 in0.0 mm
01:10 PM 49.8°F9.9°C 40.8°F4.9°C 71% 1.8 mph SW2.9 kmh SW 3.1 mph5.0 kmh 30.06 in1017.9 mb 0.00 in0.0 mm 0.00 in0.0 mm 0.00 in0.0 mm
01:15 PM 49.9°F9.9°C 40.9°F4.9°C 71% 2.2 mph SSW3.5 kmh SSW 3.1 mph5.0 kmh 30.06 in1017.9 mb 0.00 in0.0 mm 0.00 in0.0 mm 0.00 in0.0 mm
01:20 PM 49.9°F9.9°C 40.9°F4.9°C 71% 2.1 mph S3.4 kmh S 3.8 mph6.1 kmh 30.06 in1017.9 mb 0.00 in0.0 mm 0.00 in0.0 mm 0.00 in0.0 mm
01:25 PM 49.8°F9.9°C 40.8°F4.9°C 71% 1.3 mph SSW2.1 kmh SSW 2.2 mph3.5 kmh 30.05 in1017.6 mb 0.00 in0.0 mm 0.00 in0.0 mm 0.00 in0.0 mm
01:30 PM 50.0°F10.0°C 41.0°F5.0°C 71% 0.2 mph S0.3 kmh S 1.6 mph2.6 kmh 30.05 in1017.6 mb 0.00 in0.0 mm 0.00 in0.0 mm 0.00 in0.0 mm
01:35 PM 50.1°F10.1°C 41.1°F5.1°C 71% 0.3 mph SSW0.5 kmh SSW 1.6 mph2.6 kmh 30.05 in1017.6 mb 0.00 in0.0 mm 0.00 in0.0 mm 0.00 in0.0 mm
01:40 PM 50.3°F10.2°C 41.2°F5.1°C 71% 0.9 mph SW1.4 kmh SW 2.2 mph3.5 kmh 30.05 in1017.6 mb 0.00 in0.0 mm 0.00 in0.0 mm 0.00 in0.0 mm
01:45 PM 50.4°F10.2°C 41.0°F5.0°C 70% Calm Calm 0.7 mph1.1 kmh 30.04 in1017.3 mb 0.00 in0.0 mm 0.00 in0.0 mm 0.00 in0.0 mm
01:50 PM 50.4°F10.2°C 41.0°F5.0°C 70% 0.3 mph E0.5 kmh E 0.7 mph1.1 kmh 30.04 in1017.3 mb 0.00 in0.0 mm 0.00 in0.0 mm 0.00 in0.0 mm
01:55 PM 50.4°F10.2°C 41.0°F5.0°C 70% Calm Calm 0.7 mph1.1 kmh 30.04 in1017.3 mb 0.00 in0.0 mm 0.00 in0.0 mm 0.00 in0.0 mm
02:00 PM 50.4°F10.2°C 41.0°F5.0°C 70% 0.5 mph SW0.8 kmh SW 2.2 mph3.5 kmh 30.04 in1017.3 mb 0.00 in0.0 mm 0.00 in0.0 mm 0.00 in0.0 mm
02:05 PM 50.5°F10.3°C 41.1°F5.1°C 70% 2.2 mph SW3.5 kmh SW 3.1 mph5.0 kmh 30.04 in1017.3 mb 0.00 in0.0 mm 0.00 in0.0 mm 0.00 in0.0 mm
02:10 PM 50.4°F10.2°C 41.0°F5.0°C 70% 0.6 mph SW1.0 kmh SW 3.1 mph5.0 kmh 30.04 in1017.3 mb 0.00 in0.0 mm 0.00 in0.0 mm 0.00 in0.0 mm
02:15 PM 50.4°F10.2°C 41.0°F5.0°C 70% 0.4 mph NE0.6 kmh NE 1.6 mph2.6 kmh 30.04 in1017.3 mb 0.00 in0.0 mm 0.00 in0.0 mm 0.00 in0.0 mm
02:20 PM 50.4°F10.2°C 41.0°F5.0°C 70% 0.9 mph 1.4 kmh 1.6 mph2.6 kmh 30.03 in1016.9 mb 0.00 in0.0 mm 0.00 in0.0 mm 0.00 in0.0 mm
02:25 PM 50.3°F10.2°C 40.9°F4.9°C 70% 0.5 mph 0.8 kmh 1.6 mph2.6 kmh 30.03 in1016.9 mb 0.00 in0.0 mm 0.00 in0.0 mm 0.00 in0.0 mm
02:30 PM 50.2°F10.1°C 40.8°F4.9°C 70% 0.8 mph NW1.3 kmh NW 3.1 mph5.0 kmh 30.03 in1016.9 mb 0.00 in0.0 mm 0.00 in0.0 mm 0.00 in0.0 mm
02:35 PM 50.0°F10.0°C 40.6°F4.8°C 70% 2.9 mph W4.7 kmh W 4.5 mph7.2 kmh 30.03 in1016.9 mb 0.00 in0.0 mm 0.00 in0.0 mm 0.00 in0.0 mm
02:40 PM 49.8°F9.9°C 40.4°F4.7°C 70% 2.8 mph W4.5 kmh W 4.5 mph7.2 kmh 30.03 in1016.9 mb 0.00 in0.0 mm 0.00 in0.0 mm 0.00 in0.0 mm
02:45 PM 49.5°F9.7°C 40.2°F4.6°C 70% 0.5 mph WSW0.8 kmh WSW 2.2 mph3.5 kmh 30.04 in1017.3 mb 0.00 in0.0 mm 0.00 in0.0 mm 0.00 in0.0 mm
02:50 PM 49.4°F9.7°C 40.0°F4.4°C 70% 0.6 mph SW1.0 kmh SW 1.6 mph2.6 kmh 30.03 in1016.9 mb 0.00 in0.0 mm 0.00 in0.0 mm 0.00 in0.0 mm
02:55 PM 49.1°F9.5°C 40.1°F4.5°C 71% Calm Calm 0.7 mph1.1 kmh 30.03 in1016.9 mb 0.00 in0.0 mm 0.00 in0.0 mm 0.00 in0.0 mm
03:00 PM 48.9°F9.4°C 39.9°F4.4°C 71% 0.4 mph 0.6 kmh 1.6 mph2.6 kmh 30.03 in1016.9 mb 0.00 in0.0 mm 0.00 in0.0 mm 0.00 in0.0 mm
03:05 PM 48.7°F9.3°C 39.8°F4.3°C 71% 0.7 mph 1.1 kmh 1.6 mph2.6 kmh 30.03 in1016.9 mb 0.00 in0.0 mm 0.00 in0.0 mm 0.00 in0.0 mm
03:10 PM 48.4°F9.1°C 39.5°F4.2°C 71% 1.6 mph NNE2.6 kmh NNE 3.1 mph5.0 kmh 30.03 in1016.9 mb 0.00 in0.0 mm 0.00 in0.0 mm 0.00 in0.0 mm
03:15 PM 48.1°F8.9°C 39.1°F3.9°C 71% 0.8 mph NNW1.3 kmh NNW 2.2 mph3.5 kmh 30.03 in1016.9 mb 0.00 in0.0 mm 0.00 in0.0 mm 0.00 in0.0 mm
03:20 PM 48.0°F8.9°C 39.1°F3.9°C 71% 0.5 mph W0.8 kmh W 1.6 mph2.6 kmh 30.03 in1016.9 mb 0.00 in0.0 mm 0.00 in0.0 mm 0.00 in0.0 mm
03:25 PM 47.9°F8.8°C 38.9°F3.8°C 71% 0.2 mph SW0.3 kmh SW 1.6 mph2.6 kmh 30.03 in1016.9 mb 0.00 in0.0 mm 0.00 in0.0 mm 0.00 in0.0 mm
03:30 PM 47.8°F8.8°C 38.8°F3.8°C 71% Calm Calm -- 30.03 in1016.9 mb 0.00 in0.0 mm 0.00 in0.0 mm 0.00 in0.0 mm
03:35 PM 47.6°F8.7°C 38.7°F3.7°C 71% Calm Calm -- 30.03 in1016.9 mb 0.00 in0.0 mm 0.00 in0.0 mm 0.00 in0.0 mm
03:40 PM 47.3°F8.5°C 38.4°F3.6°C 71% Calm Calm 0.7 mph1.1 kmh 30.03 in1016.9 mb 0.00 in0.0 mm 0.00 in0.0 mm 0.00 in0.0 mm
03:45 PM 47.0°F8.3°C 38.1°F3.4°C 71% 0.1 mph NW0.2 kmh NW 0.7 mph1.1 kmh 30.03 in1016.9 mb 0.00 in0.0 mm 0.00 in0.0 mm 0.00 in0.0 mm
03:50 PM 46.7°F8.2°C 37.8°F3.2°C 71% Calm Calm -- 30.03 in1016.9 mb 0.00 in0.0 mm 0.00 in0.0 mm 0.00 in0.0 mm
03:55 PM 46.5°F8.1°C 37.6°F3.1°C 71% Calm Calm -- 30.03 in1016.9 mb 0.00 in0.0 mm 0.00 in0.0 mm 0.00 in0.0 mm
04:00 PM 46.2°F7.9°C 37.3°F2.9°C 71% Calm Calm 0.7 mph1.1 kmh 30.03 in1016.9 mb 0.00 in0.0 mm 0.00 in0.0 mm 0.00 in0.0 mm
04:05 PM 46.0°F7.8°C 37.2°F2.9°C 71% Calm Calm -- 30.03 in1016.9 mb 0.00 in0.0 mm 0.00 in0.0 mm 0.00 in0.0 mm
04:10 PM 45.6°F7.6°C 38.1°F3.4°C 75% 0.3 mph NE0.5 kmh NE 2.2 mph3.5 kmh 30.03 in1016.9 mb 0.00 in0.0 mm 0.00 in0.0 mm 0.00 in0.0 mm
04:15 PM 45.3°F7.4°C 38.5°F3.6°C 77% 0.7 mph N1.1 kmh N 1.6 mph2.6 kmh 30.03 in1016.9 mb 0.00 in0.0 mm 0.00 in0.0 mm 0.00 in0.0 mm
04:20 PM 45.0°F7.2°C 38.5°F3.6°C 78% 0.5 mph 0.8 kmh 1.6 mph2.6 kmh 30.03 in1016.9 mb 0.00 in0.0 mm 0.00 in0.0 mm 0.00 in0.0 mm
04:25 PM 44.8°F7.1°C 38.3°F3.5°C 78% 1.3 mph N2.1 kmh N 2.2 mph3.5 kmh 30.03 in1016.9 mb 0.00 in0.0 mm 0.00 in0.0 mm 0.00 in0.0 mm
04:30 PM 44.5°F6.9°C 38.2°F3.4°C 79% 0.3 mph N0.5 kmh N 1.6 mph2.6 kmh 30.03 in1016.9 mb 0.00 in0.0 mm 0.00 in0.0 mm 0.00 in0.0 mm
04:35 PM 44.2°F6.8°C 38.1°F3.4°C 79% 0.9 mph NE1.4 kmh NE 2.2 mph3.5 kmh 30.03 in1016.9 mb 0.00 in0.0 mm 0.00 in0.0 mm 0.00 in0.0 mm
04:40 PM 44.0°F6.7°C 38.1°F3.4°C 80% Calm Calm 0.7 mph1.1 kmh 30.03 in1016.9 mb 0.00 in0.0 mm 0.00 in0.0 mm 0.00 in0.0 mm
04:45 PM 43.8°F6.6°C 38.0°F3.3°C 80% Calm Calm -- 30.03 in1016.9 mb 0.00 in0.0 mm 0.00 in0.0 mm 0.00 in0.0 mm
04:50 PM 43.6°F6.4°C 37.9°F3.3°C 80% Calm Calm -- 30.03 in1016.9 mb 0.00 in0.0 mm 0.00 in0.0 mm 0.00 in0.0 mm
04:55 PM 43.5°F6.4°C 37.7°F3.2°C 80% Calm Calm -- 30.03 in1016.9 mb 0.00 in0.0 mm 0.00 in0.0 mm 0.00 in0.0 mm
05:00 PM 43.3°F6.3°C 37.6°F3.1°C 80% Calm Calm -- 30.03 in1016.9 mb 0.00 in0.0 mm 0.00 in0.0 mm 0.00 in0.0 mm
05:05 PM 43.2°F6.2°C 37.4°F3.0°C 80% 0.2 mph WSW0.3 kmh WSW 1.6 mph2.6 kmh 30.03 in1016.9 mb 0.00 in0.0 mm 0.00 in0.0 mm 0.00 in0.0 mm
05:10 PM 43.2°F6.2°C 37.6°F3.1°C 81% 0.7 mph W1.1 kmh W 1.6 mph2.6 kmh 30.03 in1016.9 mb 0.00 in0.0 mm 0.00 in0.0 mm 0.00 in0.0 mm
05:15 PM 43.2°F6.2°C 37.7°F3.2°C 81% Calm Calm 0.7 mph1.1 kmh 30.03 in1016.9 mb 0.00 in0.0 mm 0.00 in0.0 mm 0.00 in0.0 mm
05:20 PM 43.3°F6.3°C 37.9°F3.3°C 81% 0.4 mph NNE0.6 kmh NNE 2.2 mph3.5 kmh 30.03 in1016.9 mb 0.00 in0.0 mm 0.00 in0.0 mm 0.00 in0.0 mm
05:25 PM 43.2°F6.2°C 38.1°F3.4°C 82% 1.4 mph NE2.3 kmh NE 2.2 mph3.5 kmh 30.03 in1016.9 mb 0.00 in0.0 mm 0.00 in0.0 mm 0.00 in0.0 mm
05:30 PM 43.2°F6.2°C 38.0°F3.3°C 82% 0.3 mph NW0.5 kmh NW 1.6 mph2.6 kmh 30.03 in1016.9 mb 0.00 in0.0 mm 0.00 in0.0 mm 0.00 in0.0 mm
05:33 PM 43.0°F6.1°C 37.9°F3.3°C 82% Calm Calm -- 30.03 in1016.9 mb 0.00 in0.0 mm 0.00 in0.0 mm 0.00 in0.0 mm
05:35 PM 43.0°F6.1°C 37.9°F3.3°C 82% Calm Calm -- 30.03 in1016.9 mb 0.00 in0.0 mm 0.00 in0.0 mm 0.00 in0.0 mm
05:40 PM 42.9°F6.1°C 37.8°F3.2°C 82% 0.2 mph 0.3 kmh 1.6 mph2.6 kmh 30.04 in1017.3 mb 0.00 in0.0 mm 0.00 in0.0 mm 0.00 in0.0 mm
05:45 PM 42.6°F5.9°C 37.5°F3.1°C 82% 1.3 mph N2.1 kmh N 2.2 mph3.5 kmh 30.03 in1016.9 mb 0.00 in0.0 mm 0.00 in0.0 mm 0.00 in0.0 mm
05:48 PM 42.4°F5.8°C 37.3°F2.9°C 82% Calm Calm 0.7 mph1.1 kmh 30.03 in1016.9 mb 0.00 in0.0 mm 0.00 in0.0 mm 0.00 in0.0 mm
05:53 PM 42.1°F5.6°C 37.0°F2.8°C 82% Calm Calm -- 30.03 in1016.9 mb 0.00 in0.0 mm 0.00 in0.0 mm 0.00 in0.0 mm
05:57 PM 41.9°F5.5°C 36.5°F2.5°C 81% 0.7 mph 1.1 kmh 1.6 mph2.6 kmh 30.04 in1017.3 mb 0.00 in0.0 mm 0.00 in0.0 mm 0.00 in0.0 mm
06:02 PM 41.9°F5.5°C 36.5°F2.5°C 81% 1.6 mph NE2.6 kmh NE 2.2 mph3.5 kmh 30.04 in1017.3 mb 0.00 in0.0 mm 0.00 in0.0 mm 0.00 in0.0 mm
06:07 PM 41.4°F5.2°C 36.0°F2.2°C 81% 1.6 mph 2.6 kmh 2.2 mph3.5 kmh 30.03 in1016.9 mb 0.00 in0.0 mm 0.00 in0.0 mm 0.00 in0.0 mm
06:12 PM 41.0°F5.0°C 35.6°F2.0°C 81% 2.2 mph NE3.5 kmh NE 2.2 mph3.5 kmh 30.04 in1017.3 mb 0.00 in0.0 mm 0.00 in0.0 mm 0.00 in0.0 mm
06:17 PM 40.8°F4.9°C 35.4°F1.9°C 81% 2.2 mph 3.5 kmh 3.1 mph5.0 kmh 30.03 in1016.9 mb 0.00 in0.0 mm 0.00 in0.0 mm 0.00 in0.0 mm
06:22 PM 40.6°F4.8°C 35.3°F1.8°C 81% 1.6 mph NE2.6 kmh NE 2.2 mph3.5 kmh 30.04 in1017.3 mb 0.00 in0.0 mm 0.00 in0.0 mm 0.00 in0.0 mm
06:27 PM 40.6°F4.8°C 35.6°F2.0°C 82% 3.1 mph NE5.0 kmh NE 3.8 mph6.1 kmh 30.03 in1016.9 mb 0.00 in0.0 mm 0.00 in0.0 mm 0.00 in0.0 mm
06:32 PM 40.8°F4.9°C 35.8°F2.1°C 82% 0.7 mph NE1.1 kmh NE 1.6 mph2.6 kmh 30.04 in1017.3 mb 0.00 in0.0 mm 0.00 in0.0 mm 0.00 in0.0 mm
06:37 PM 40.8°F4.9°C 35.8°F2.1°C 82% 0.7 mph NE1.1 kmh NE 1.6 mph2.6 kmh 30.03 in1016.9 mb 0.00 in0.0 mm 0.00 in0.0 mm 0.00 in0.0 mm
06:43 PM 40.8°F4.9°C 36.1°F2.3°C 83% 2.2 mph NE3.5 kmh NE 3.1 mph5.0 kmh 30.03 in1016.9 mb 0.00 in0.0 mm 0.00 in0.0 mm 0.00 in0.0 mm
06:48 PM 40.8°F4.9°C 36.1°F2.3°C 83% 1.6 mph NE2.6 kmh NE 2.2 mph3.5 kmh 30.03 in1016.9 mb 0.00 in0.0 mm 0.00 in0.0 mm 0.00 in0.0 mm
06:53 PM 41.0°F5.0°C 36.2°F2.3°C 83% 0.7 mph 1.1 kmh 1.6 mph2.6 kmh 30.04 in1017.3 mb 0.00 in0.0 mm 0.00 in0.0 mm 0.00 in0.0 mm
06:58 PM 41.0°F5.0°C 36.5°F2.5°C 84% 0.7 mph SW1.1 kmh SW 1.6 mph2.6 kmh 30.03 in1016.9 mb 0.00 in0.0 mm 0.00 in0.0 mm 0.00 in0.0 mm
07:03 PM 41.0°F5.0°C 36.5°F2.5°C 84% Calm Calm -- 30.03 in1016.9 mb 0.00 in0.0 mm 0.00 in0.0 mm 0.00 in0.0 mm
07:08 PM 41.0°F5.0°C 36.5°F2.5°C 84% 1.6 mph NE2.6 kmh NE 2.2 mph3.5 kmh 30.03 in1016.9 mb 0.00 in0.0 mm 0.00 in0.0 mm 0.00 in0.0 mm
07:13 PM 40.8°F4.9°C 36.4°F2.4°C 84% 2.2 mph 3.5 kmh 3.1 mph5.0 kmh 30.03 in1016.9 mb 0.00 in0.0 mm 0.00 in0.0 mm 0.00 in0.0 mm
07:18 PM 40.8°F4.9°C 36.4°F2.4°C 84% Calm Calm 0.7 mph1.1 kmh 30.03 in1016.9 mb 0.00 in0.0 mm 0.00 in0.0 mm 0.00 in0.0 mm
07:23 PM 40.6°F4.8°C 36.2°F2.3°C 84% Calm Calm -- 30.03 in1016.9 mb 0.00 in0.0 mm 0.00 in0.0 mm 0.00 in0.0 mm
07:28 PM 40.6°F4.8°C 36.2°F2.3°C 84% 0.7 mph 1.1 kmh 1.6 mph2.6 kmh 30.03 in1016.9 mb 0.00 in0.0 mm 0.00 in0.0 mm 0.00 in0.0 mm
07:33 PM 40.5°F4.7°C 36.0°F2.2°C 84% 2.2 mph NE3.5 kmh NE 3.1 mph5.0 kmh 30.03 in1016.9 mb 0.00 in0.0 mm 0.00 in0.0 mm 0.00 in0.0 mm
07:35 PM 40.3°F4.6°C 35.9°F2.2°C 84% 2.2 mph NNE3.5 kmh NNE 3.1 mph5.0 kmh 30.04 in1017.3 mb 0.00 in0.0 mm 0.00 in0.0 mm 0.00 in0.0 mm
07:40 PM 40.3°F4.6°C 35.8°F2.1°C 84% 2.2 mph NNE3.5 kmh NNE 3.1 mph5.0 kmh 30.04 in1017.3 mb 0.00 in0.0 mm 0.00 in0.0 mm 0.00 in0.0 mm
07:45 PM 40.2°F4.6°C 35.8°F2.1°C 84% 1.0 mph N1.6 kmh N 2.2 mph3.5 kmh 30.04 in1017.3 mb 0.00 in0.0 mm 0.00 in0.0 mm 0.00 in0.0 mm
07:50 PM 40.3°F4.6°C 35.8°F2.1°C 84% 0.8 mph NNE1.3 kmh NNE 2.2 mph3.5 kmh 30.04 in1017.3 mb 0.00 in0.0 mm 0.00 in0.0 mm 0.00 in0.0 mm
07:53 PM 40.3°F4.6°C 35.8°F2.1°C 84% 0.7 mph 1.1 kmh 1.6 mph2.6 kmh 30.04 in1017.3 mb 0.00 in0.0 mm 0.00 in0.0 mm 0.00 in0.0 mm
07:55 PM 40.3°F4.6°C 35.8°F2.1°C 84% 0.7 mph 1.1 kmh 1.6 mph2.6 kmh 30.04 in1017.3 mb 0.00 in0.0 mm 0.00 in0.0 mm 0.00 in0.0 mm
08:00 PM 40.1°F4.5°C 35.7°F2.1°C 84% Calm Calm 0.7 mph1.1 kmh 30.04 in1017.3 mb 0.00 in0.0 mm 0.00 in0.0 mm 0.00 in0.0 mm
08:05 PM 40.1°F4.5°C 35.7°F2.1°C 84% Calm Calm -- 30.04 in1017.3 mb 0.00 in0.0 mm 0.00 in0.0 mm 0.00 in0.0 mm
08:10 PM 40.0°F4.4°C 35.6°F2.0°C 84% 0.5 mph 0.8 kmh 2.2 mph3.5 kmh 30.04 in1017.3 mb 0.00 in0.0 mm 0.00 in0.0 mm 0.00 in0.0 mm
08:15 PM 39.8°F4.3°C 35.3°F1.8°C 84% 0.6 mph N1.0 kmh N 1.6 mph2.6 kmh 30.04 in1017.3 mb 0.00 in0.0 mm 0.00 in0.0 mm 0.00 in0.0 mm
08:20 PM 39.9°F4.4°C 35.5°F1.9°C 84% 1.6 mph NE2.6 kmh NE 2.2 mph3.5 kmh 30.04 in1017.3 mb 0.00 in0.0 mm 0.00 in0.0 mm 0.00 in0.0 mm
08:25 PM 40.2°F4.6°C 35.9°F2.2°C 85% 1.3 mph NE2.1 kmh NE 3.1 mph5.0 kmh 30.04 in1017.3 mb 0.00 in0.0 mm 0.00 in0.0 mm 0.00 in0.0 mm
08:30 PM 40.3°F4.6°C 36.2°F2.3°C 85% Calm Calm 0.7 mph1.1 kmh 30.04 in1017.3 mb 0.00 in0.0 mm 0.00 in0.0 mm 0.00 in0.0 mm
08:35 PM 40.5°F4.7°C 36.3°F2.4°C 85% Calm Calm -- 30.04 in1017.3 mb 0.00 in0.0 mm 0.00 in0.0 mm 0.00 in0.0 mm
08:40 PM 40.5°F4.7°C 36.3°F2.4°C 85% Calm Calm 0.7 mph1.1 kmh 30.04 in1017.3 mb 0.00 in0.0 mm 0.00 in0.0 mm 0.00 in0.0 mm
08:45 PM 40.5°F4.7°C 36.3°F2.4°C 85% 0.3 mph NE0.5 kmh NE 2.2 mph3.5 kmh 30.04 in1017.3 mb 0.00 in0.0 mm 0.00 in0.0 mm 0.00 in0.0 mm
08:48 PM 40.5°F4.7°C 36.3°F2.4°C 85% 0.7 mph NE1.1 kmh NE 1.6 mph2.6 kmh 30.05 in1017.6 mb 0.00 in0.0 mm 0.00 in0.0 mm 0.00 in0.0 mm
08:53 PM 40.5°F4.7°C 36.3°F2.4°C 85% 0.7 mph W1.1 kmh W 0.7 mph1.1 kmh 30.04 in1017.3 mb 0.00 in0.0 mm 0.00 in0.0 mm 0.00 in0.0 mm
08:55 PM 40.5°F4.7°C 36.3°F2.4°C 85% 0.2 mph W0.3 kmh W 0.7 mph1.1 kmh 30.04 in1017.3 mb 0.00 in0.0 mm 0.00 in0.0 mm 0.00 in0.0 mm
08:58 PM 40.6°F4.8°C 36.5°F2.5°C 85% Calm Calm 0.7 mph1.1 kmh 30.05 in1017.6 mb 0.00 in0.0 mm 0.00 in0.0 mm 0.00 in0.0 mm
09:00 PM 40.6°F4.8°C 36.5°F2.5°C 85% 0.4 mph 0.6 kmh 0.7 mph1.1 kmh 30.05 in1017.6 mb 0.00 in0.0 mm 0.00 in0.0 mm 0.00 in0.0 mm
09:05 PM 40.6°F4.8°C 36.7°F2.6°C 86% 0.7 mph 1.1 kmh 1.6 mph2.6 kmh 30.04 in1017.3 mb 0.00 in0.0 mm 0.00 in0.0 mm 0.00 in0.0 mm
09:10 PM 40.6°F4.8°C 36.8°F2.7°C 86% 0.2 mph 0.3 kmh 1.6 mph2.6 kmh 30.04 in1017.3 mb 0.00 in0.0 mm 0.00 in0.0 mm 0.00 in0.0 mm
09:15 PM 40.8°F4.9°C 37.0°F2.8°C 86% Calm Calm 0.7 mph1.1 kmh 30.05 in1017.6 mb 0.00 in0.0 mm 0.00 in0.0 mm 0.00 in0.0 mm
09:20 PM 41.0°F5.0°C 37.1°F2.8°C 86% 0.5 mph 0.8 kmh 2.2 mph3.5 kmh 30.05 in1017.6 mb 0.00 in0.0 mm 0.00 in0.0 mm 0.00 in0.0 mm
09:25 PM 41.1°F5.1°C 37.2°F2.9°C 86% 0.7 mph N1.1 kmh N 1.6 mph2.6 kmh 30.05 in1017.6 mb 0.00 in0.0 mm 0.00 in0.0 mm 0.00 in0.0 mm
09:30 PM 41.2°F5.1°C 37.3°F2.9°C 86% 2.3 mph NE3.7 kmh NE 3.1 mph5.0 kmh 30.04 in1017.3 mb 0.00 in0.0 mm 0.00 in0.0 mm 0.00 in0.0 mm
09:35 PM 41.3°F5.2°C 37.4°F3.0°C 86% 1.2 mph NE1.9 kmh NE 2.2 mph3.5 kmh 30.04 in1017.3 mb 0.00 in0.0 mm 0.00 in0.0 mm 0.00 in0.0 mm
09:40 PM 41.4°F5.2°C 37.8°F3.2°C 87% 0.7 mph W1.1 kmh W 1.6 mph2.6 kmh 30.04 in1017.3 mb 0.00 in0.0 mm 0.00 in0.0 mm 0.00 in0.0 mm
09:45 PM 41.5°F5.3°C 38.0°F3.3°C 87% 0.3 mph SW0.5 kmh SW 1.6 mph2.6 kmh 30.04 in1017.3 mb 0.00 in0.0 mm 0.00 in0.0 mm 0.00 in0.0 mm
09:50 PM 41.5°F5.3°C 38.0°F3.3°C 87% 0.4 mph NE0.6 kmh NE 2.2 mph3.5 kmh 30.04 in1017.3 mb 0.00 in0.0 mm 0.00 in0.0 mm 0.00 in0.0 mm
09:55 PM 41.5°F5.3°C 38.0°F3.3°C 87% 2.0 mph NE3.2 kmh NE 3.8 mph6.1 kmh 30.04 in1017.3 mb 0.00 in0.0 mm 0.00 in0.0 mm 0.00 in0.0 mm
10:00 PM 41.5°F5.3°C 38.0°F3.3°C 87% 2.1 mph NNE3.4 kmh NNE 3.8 mph6.1 kmh 30.04 in1017.3 mb 0.00 in0.0 mm 0.00 in0.0 mm 0.00 in0.0 mm
11:33 PM 42.3°F5.7°C 39.0°F3.9°C 88% Calm Calm 0.7 mph1.1 kmh 30.05 in1017.6 mb 0.01 in0.3 mm 0.02 in0.5 mm 0.01 in0.3 mm
11:38 PM 42.3°F5.7°C 39.0°F3.9°C 88% Calm Calm -- 30.04 in1017.3 mb 0.01 in0.3 mm 0.00 in0.0 mm 0.02 in0.5 mm
11:43 PM 42.3°F5.7°C 39.0°F3.9°C 88% Calm Calm -- 30.04 in1017.3 mb 0.02 in0.5 mm 0.12 in3.0 mm 0.02 in0.5 mm
11:45 PM 42.3°F5.7°C 39.0°F3.9°C 88% Calm Calm -- 30.05 in1017.6 mb 0.02 in0.5 mm 0.00 in0.0 mm 0.02 in0.5 mm
11:50 PM 42.3°F5.7°C 39.0°F3.9°C 88% 0.2 mph W0.3 kmh W 1.6 mph2.6 kmh 30.05 in1017.6 mb 0.02 in0.5 mm 0.00 in0.0 mm 0.02 in0.5 mm
11:55 PM 42.4°F5.8°C 39.1°F3.9°C 88% 0.3 mph W0.5 kmh W 1.6 mph2.6 kmh 30.05 in1017.6 mb 0.02 in0.5 mm 0.00 in0.0 mm 0.02 in0.5 mm